»·PEaware :: PAA576 KRNO-KBUR

PAA576 :: KRNO-KBUR

FLIGHT INFORMATION

Flight Status: Arrived
Operator:
PanAm
More flights by this operator :: More flights under this callsign
Pilot: Anonymous 8274 (8274)
Aircraft: BOEING 727-200
(B722)
More flights by this aircraft type
Origin: KRNO Reno/Tahoe Intl
United States
Destination: KBUR Bob Hope-Burbank
United States
More flights between these airports :: More routes between these airports
Route: RENO9 FMG J7 DERBB FERN7
File this flight plan on PilotEdge
Remarks:
Altitude:
(Current/Filed)
33,000ft
Speed:
(Current/Filed)
460kts
Departed: 07-Aug-18 07:59 PM
Arrived: 07-Aug-18 09:03 PM
Distance/Time
Traveled:
325nm/1:04
Distance/Time
To Go:
Arrived

Flight Plot

Page will automatically refresh every two minutes.

Flight plan parsing failed; only flown route is shown


Map Options




Map Legend


Flown Route
Filed Route
Departure Airport
Arrival Airport
Navaid (VOR, NDB)
Fix

Horizontal Profiles

Position Reports

Time Latitude Longitude Heading Altitude Ground
Speed
07-Aug-18 19:11 39.504360 -119.773752 358 4420ft 0kts
07-Aug-18 19:12 39.504360 -119.773752 358 4420ft 0kts
07-Aug-18 19:13 39.504360 -119.773752 358 4420ft 0kts
07-Aug-18 19:14 39.504360 -119.773752 358 4420ft 0kts
07-Aug-18 19:15 39.504360 -119.773752 358 4420ft 0kts
07-Aug-18 19:16 39.504360 -119.773752 358 4420ft 0kts
07-Aug-18 19:17 39.504360 -119.773752 358 4420ft 0kts
07-Aug-18 19:18 39.504360 -119.773752 358 4420ft 0kts
07-Aug-18 19:19 39.504360 -119.773752 358 4420ft 0kts
07-Aug-18 19:20 39.504360 -119.773752 358 4420ft 0kts
07-Aug-18 19:21 39.504360 -119.773752 358 4420ft 0kts
07-Aug-18 19:22 39.504360 -119.773752 358 4420ft 0kts
07-Aug-18 19:23 39.504360 -119.773752 358 4420ft 0kts
07-Aug-18 19:24 39.504360 -119.773752 358 4420ft 0kts
07-Aug-18 19:25 39.504360 -119.773752 358 4420ft 0kts
07-Aug-18 19:26 39.504360 -119.773752 358 4420ft 0kts
07-Aug-18 19:27 39.504360 -119.773752 358 4420ft 0kts
07-Aug-18 19:28 39.504360 -119.773752 358 4420ft 0kts
07-Aug-18 19:29 39.504360 -119.773752 358 4420ft 0kts
07-Aug-18 19:30 39.504360 -119.773752 358 4420ft 0kts
07-Aug-18 19:31 39.504360 -119.773752 358 4420ft 0kts
07-Aug-18 19:32 39.504360 -119.773752 358 4420ft 0kts
07-Aug-18 19:33 39.504360 -119.773752 358 4420ft 0kts
07-Aug-18 19:34 39.504360 -119.773752 358 4420ft 0kts
07-Aug-18 19:35 39.504248 -119.773750 358 4420ft 2kts
07-Aug-18 19:36 39.503728 -119.773970 77 4420ft 2kts
07-Aug-18 19:37 39.503722 -119.774120 89 4420ft 0kts
07-Aug-18 19:38 39.503722 -119.774120 89 4420ft 0kts
07-Aug-18 19:39 39.503722 -119.774120 89 4420ft 0kts
07-Aug-18 19:40 39.503722 -119.774120 89 4420ft 0kts
07-Aug-18 19:41 39.503722 -119.774120 89 4420ft 0kts
07-Aug-18 19:42 39.503722 -119.774120 89 4420ft 0kts
07-Aug-18 19:43 39.503722 -119.774119 89 4420ft 0kts
07-Aug-18 19:44 39.503722 -119.774119 89 4420ft 0kts
07-Aug-18 19:45 39.503722 -119.774119 89 4420ft 0kts
07-Aug-18 19:46 39.503722 -119.774119 89 4420ft 0kts
07-Aug-18 19:47 39.503722 -119.774119 89 4420ft 0kts
07-Aug-18 19:48 39.503722 -119.774119 89 4420ft 0kts
07-Aug-18 19:49 39.503722 -119.774119 89 4420ft 0kts
07-Aug-18 19:50 39.503722 -119.774119 89 4420ft 0kts
07-Aug-18 19:51 39.503727 -119.773674 89 4420ft 4kts
07-Aug-18 19:52 39.503738 -119.772312 90 4420ft 0kts
07-Aug-18 19:53 39.503572 -119.771576 142 4420ft 10kts
07-Aug-18 19:54 39.500221 -119.771523 179 4420ft 15kts
07-Aug-18 19:55 39.493699 -119.771535 179 4420ft 31kts
07-Aug-18 19:56 39.484859 -119.771535 179 4420ft 29kts
07-Aug-18 19:57 39.483770 -119.770624 89 4420ft 0kts
07-Aug-18 19:58 39.483770 -119.770624 89 4420ft 0kts
07-Aug-18 19:59 39.484177 -119.769299 359 4420ft 3kts
07-Aug-18 20:00 39.492652 -119.769283 0 4420ft 118kts
07-Aug-18 20:01 39.536518 -119.771713 344 5707ft 169kts
07-Aug-18 20:02 39.583160 -119.789609 344 7164ft 206kts
07-Aug-18 20:03 39.649671 -119.814923 342 8835ft 285kts
07-Aug-18 20:04 39.715869 -119.873932 285 10261ft 332kts
07-Aug-18 20:05 39.734087 -119.991445 280 12096ft 335kts
07-Aug-18 20:06 39.687160 -120.084428 193 13551ft 350kts
07-Aug-18 20:07 39.589508 -120.090766 183 14964ft 356kts
07-Aug-18 20:08 39.496597 -120.046181 153 16064ft 368kts
07-Aug-18 20:09 39.406241 -119.983600 153 17311ft 372kts
07-Aug-18 20:10 39.314564 -119.919896 153 18355ft 378kts
07-Aug-18 20:11 39.221628 -119.855236 153 19321ft 383kts
07-Aug-18 20:12 39.127817 -119.789885 152 20242ft 386kts
07-Aug-18 20:13 39.032776 -119.723600 152 21047ft 391kts
07-Aug-18 20:14 38.937092 -119.656799 152 21840ft 394kts
07-Aug-18 20:15 38.836345 -119.633488 178 22454ft 391kts
07-Aug-18 20:16 38.726404 -119.627001 179 23889ft 399kts
07-Aug-18 20:17 38.614724 -119.627937 181 25147ft 407kts
07-Aug-18 20:18 38.500851 -119.628691 181 26292ft 415kts
07-Aug-18 20:19 38.384713 -119.629394 181 27335ft 422kts
07-Aug-18 20:20 38.266748 -119.628982 178 28277ft 429kts
07-Aug-18 20:21 38.147892 -119.616870 176 29130ft 435kts
07-Aug-18 20:22 38.026929 -119.604068 176 29922ft 441kts
07-Aug-18 20:23 37.904338 -119.596562 179 30647ft 445kts
07-Aug-18 20:24 37.790120 -119.593931 183 31262ft 448kts
07-Aug-18 20:25 37.666181 -119.599345 183 32086ft 447kts
07-Aug-18 20:26 37.543389 -119.604755 183 32908ft 444kts
07-Aug-18 20:27 37.420491 -119.604324 177 33301ft 451kts
07-Aug-18 20:28 37.293683 -119.595135 180 33295ft 465kts
07-Aug-18 20:29 37.164076 -119.591582 180 33274ft 468kts
07-Aug-18 20:30 37.034133 -119.592859 184 33140ft 469kts
07-Aug-18 20:31 36.903664 -119.596496 183 33009ft 471kts
07-Aug-18 20:32 36.786280 -119.600971 183 32892ft 473kts
07-Aug-18 20:33 36.655661 -119.605944 183 32860ft 473kts
07-Aug-18 20:34 36.525123 -119.610833 183 32860ft 472kts
07-Aug-18 20:35 36.394306 -119.611281 181 32860ft 472kts
07-Aug-18 20:36 36.263909 -119.610316 181 32887ft 471kts
07-Aug-18 20:37 36.133616 -119.609259 181 32887ft 470kts
07-Aug-18 20:38 36.004070 -119.614387 184 32887ft 469kts
07-Aug-18 20:39 35.889990 -119.620697 184 32887ft 469kts
07-Aug-18 20:40 35.764147 -119.627576 184 32887ft 469kts
07-Aug-18 20:41 35.634142 -119.635217 184 32887ft 469kts
07-Aug-18 20:42 35.504628 -119.642880 184 32887ft 469kts
07-Aug-18 20:43 35.396549 -119.649213 184 32887ft 469kts
07-Aug-18 20:44 35.245589 -119.654919 171 32876ft 470kts
07-Aug-18 20:45 35.145463 -119.560482 129 31787ft 470kts
07-Aug-18 20:46 35.063708 -119.472263 142 28997ft 476kts
07-Aug-18 20:47 34.947037 -119.364460 142 24805ft 413kts
07-Aug-18 20:48 34.890000 -119.312993 145 22371ft 401kts
07-Aug-18 20:49 34.804895 -119.245925 149 20620ft 376kts
07-Aug-18 20:50 34.704408 -119.171813 149 15723ft 352kts
07-Aug-18 20:51 34.636529 -119.121490 149 12931ft 339kts
07-Aug-18 20:52 34.561112 -119.054042 144 11228ft 328kts
07-Aug-18 20:53 34.493304 -118.990560 145 11046ft 301kts
07-Aug-18 20:54 34.420804 -118.936661 149 9729ft 298kts
07-Aug-18 20:55 34.381204 -118.856589 112 9036ft 279kts
07-Aug-18 20:56 34.353999 -118.769138 112 7928ft 278kts
07-Aug-18 20:57 34.345166 -118.676642 98 6793ft 277kts
07-Aug-18 20:58 34.336575 -118.590038 97 6599ft 240kts
07-Aug-18 20:59 34.326692 -118.515026 112 5042ft 218kts
07-Aug-18 21:00 34.306682 -118.449582 111 4378ft 192kts
07-Aug-18 21:01 34.285658 -118.394018 118 3016ft 177kts
07-Aug-18 21:02 34.250105 -118.370833 164 1794ft 133kts
07-Aug-18 21:03 34.213486 -118.360812 164 879ft 133kts
07-Aug-18 21:04 34.194959 -118.354989 6 742ft 8kts
07-Aug-18 21:05 34.197247 -118.355027 80 742ft 9kts
07-Aug-18 21:06 34.197228 -118.351325 88 742ft 11kts
07-Aug-18 21:07 34.196720 -118.349780 206 742ft 0kts
07-Aug-18 21:08 34.196720 -118.349780 206 742ft 0kts
07-Aug-18 21:09 34.196720 -118.349780 206 742ft 0kts
07-Aug-18 21:10 34.196720 -118.349780 206 742ft 0kts
07-Aug-18 21:11 34.196720 -118.349780 206 742ft 0kts
07-Aug-18 21:12 34.196720 -118.349780 206 742ft 0kts
07-Aug-18 21:13 34.196720 -118.349780 206 742ft 0kts
07-Aug-18 21:14 34.196720 -118.349780 206 742ft 0kts
07-Aug-18 21:15 34.196720 -118.349780 206 742ft 0kts
07-Aug-18 21:16 34.196720 -118.349780 206 742ft 0kts
07-Aug-18 21:17 34.196720 -118.349780 206 742ft 0kts

Navigation Log

Ident Type
Flight plan parsing failed, navigation log unavailable